createdAt,value
2023-03-04T00:00:43.060Z,17.06
2023-03-04T00:03:45.060Z,17.05
2023-03-04T00:06:48.411Z,17.03
2023-03-04T00:09:50.441Z,17.02
2023-03-04T00:12:52.536Z,17.01
2023-03-04T00:15:54.558Z,16.99
2023-03-04T00:18:57.636Z,16.98
2023-03-04T00:21:59.678Z,16.96
2023-03-04T00:25:01.805Z,16.95
2023-03-04T00:28:04.038Z,16.94
2023-03-04T00:31:07.238Z,16.94
2023-03-04T00:34:09.331Z,16.92
2023-03-04T00:37:11.402Z,16.90
2023-03-04T00:40:13.878Z,16.88
2023-03-04T00:43:15.935Z,16.87
2023-03-04T00:46:18.011Z,16.85
2023-03-04T00:49:20.096Z,16.85
2023-03-04T00:52:22.134Z,16.84
2023-03-04T00:55:24.955Z,16.81
2023-03-04T00:58:27.053Z,16.79
2023-03-04T01:01:29.242Z,16.79
2023-03-04T01:04:31.317Z,16.78
2023-03-04T01:07:34.058Z,16.76
2023-03-04T01:10:36.208Z,16.76
2023-03-04T01:13:38.580Z,16.76
2023-03-04T01:16:40.685Z,16.73
2023-03-04T01:19:42.793Z,16.72
2023-03-04T01:22:44.901Z,16.71
2023-03-04T01:25:46.953Z,16.71
2023-03-04T01:28:49.085Z,16.69
2023-03-04T01:31:51.098Z,16.67
2023-03-04T01:34:53.106Z,16.64
2023-03-04T01:37:55.202Z,16.64
2023-03-04T01:40:57.445Z,16.63
2023-03-04T01:44:02.312Z,16.61
2023-03-04T01:47:04.358Z,16.60
2023-03-04T01:50:14.726Z,16.58
2023-03-04T01:53:22.038Z,16.57
2023-03-04T01:56:51.211Z,16.57
2023-03-04T02:00:23.370Z,16.55
2023-03-04T02:03:26.134Z,16.52
2023-03-04T02:06:28.536Z,16.52
2023-03-04T02:09:31.513Z,16.50
2023-03-04T02:12:33.709Z,16.49
2023-03-04T02:15:35.823Z,16.48
2023-03-04T02:18:37.862Z,16.46
2023-03-04T02:21:39.932Z,16.46
2023-03-04T02:24:53.153Z,16.43
2023-03-04T02:27:55.311Z,16.42
2023-03-04T02:30:57.437Z,16.42
2023-03-04T02:34:03.222Z,16.40
2023-03-04T02:37:06.434Z,16.40
2023-03-04T02:40:20.577Z,16.39
2023-03-04T02:43:22.642Z,16.35
2023-03-04T02:46:24.808Z,16.34
2023-03-04T02:49:28.808Z,16.33
2023-03-04T02:52:30.926Z,16.33
2023-03-04T02:55:33.353Z,16.32
2023-03-04T02:58:35.673Z,16.30
2023-03-04T03:01:37.735Z,16.28
2023-03-04T03:04:41.126Z,16.27
2023-03-04T03:07:43.227Z,16.26
2023-03-04T03:10:45.271Z,16.24
2023-03-04T03:13:47.311Z,16.24
2023-03-04T03:16:49.335Z,16.22
2023-03-04T03:19:51.405Z,16.19
2023-03-04T03:22:53.466Z,16.19
2023-03-04T03:25:55.515Z,16.17
2023-03-04T03:28:57.538Z,16.17
2023-03-04T03:31:59.699Z,16.16
2023-03-04T03:35:01.836Z,16.13
2023-03-04T03:38:03.892Z,16.12
2023-03-04T03:41:06.080Z,16.12
2023-03-04T03:44:08.584Z,16.12
2023-03-04T03:47:10.637Z,16.08
2023-03-04T03:50:12.717Z,16.07
2023-03-04T03:53:14.761Z,16.06
2023-03-04T03:56:16.816Z,16.04
2023-03-04T03:59:18.860Z,16.03
2023-03-04T04:02:21.055Z,16.03
2023-03-04T04:05:23.141Z,16.02
2023-03-04T04:08:25.159Z,16.01
2023-03-04T04:11:27.947Z,16.00
2023-03-04T04:14:29.996Z,15.98
2023-03-04T04:17:32.070Z,15.97
2023-03-04T04:20:35.188Z,15.96
2023-03-04T04:23:37.299Z,15.95
2023-03-04T04:26:39.689Z,15.95
2023-03-04T04:29:42.066Z,15.90
2023-03-04T04:32:44.106Z,15.91
2023-03-04T04:35:46.222Z,15.89
2023-03-04T04:38:49.326Z,15.88
2023-03-04T04:41:51.363Z,15.87
2023-03-04T04:44:53.421Z,15.86
2023-03-04T04:47:57.405Z,15.84
2023-03-04T04:50:59.424Z,15.83
2023-03-04T04:54:02.697Z,15.82
2023-03-04T04:57:04.833Z,15.83
2023-03-04T05:00:07.907Z,15.80
2023-03-04T05:03:10.011Z,15.80
2023-03-04T05:06:13.320Z,15.78
2023-03-04T05:09:15.437Z,15.77
2023-03-04T05:12:17.456Z,15.75
2023-03-04T05:15:19.585Z,15.74
2023-03-04T05:18:22.776Z,15.72
2023-03-04T05:21:24.928Z,15.72
2023-03-04T05:24:29.267Z,15.72
2023-03-04T05:27:31.294Z,15.71
2023-03-04T05:30:33.338Z,15.70
2023-03-04T05:33:35.613Z,15.69
2023-03-04T05:36:37.719Z,15.67
2023-03-04T05:39:40.027Z,15.67
2023-03-04T05:42:42.090Z,15.66
2023-03-04T05:45:44.144Z,15.63
2023-03-04T05:48:46.316Z,15.63
2023-03-04T05:51:48.363Z,15.63
2023-03-04T05:54:50.379Z,15.65
2023-03-04T05:57:53.342Z,15.73
2023-03-04T06:00:55.383Z,15.80
2023-03-04T06:03:57.548Z,15.82
2023-03-04T06:06:59.595Z,15.84
2023-03-04T06:10:01.797Z,15.85
2023-03-04T06:13:04.141Z,15.85
2023-03-04T06:16:06.554Z,15.87
2023-03-04T06:19:08.614Z,15.88
2023-03-04T06:22:10.990Z,15.89
2023-03-04T06:25:12.997Z,16.07
2023-03-04T06:28:15.028Z,16.18
2023-03-04T06:31:17.675Z,16.22
2023-03-04T06:34:20.470Z,16.27
2023-03-04T06:37:22.668Z,16.30
2023-03-04T06:40:24.698Z,16.39
2023-03-04T06:43:26.752Z,16.46
2023-03-04T06:46:30.460Z,16.54
2023-03-04T06:49:32.680Z,16.63
2023-03-04T06:52:34.743Z,16.73
2023-03-04T06:55:36.810Z,16.73
2023-03-04T06:58:39.129Z,16.76
2023-03-04T07:01:41.201Z,16.85
2023-03-04T07:04:43.279Z,16.91
2023-03-04T07:07:45.322Z,16.94
2023-03-04T07:10:47.478Z,16.95
2023-03-04T07:13:50.401Z,17.06
2023-03-04T07:16:52.452Z,17.11
2023-03-04T07:19:54.840Z,17.14
2023-03-04T07:22:56.857Z,17.18
2023-03-04T07:25:59.778Z,17.24
2023-03-04T07:29:01.956Z,17.31
2023-03-04T07:32:08.707Z,17.36
2023-03-04T07:35:10.920Z,17.33
2023-03-04T07:38:12.998Z,17.35
2023-03-04T07:41:15.980Z,17.43
2023-03-04T07:44:17.983Z,17.52
2023-03-04T07:47:22.935Z,17.52
2023-03-04T07:50:25.062Z,17.51
2023-03-04T07:53:27.066Z,17.52
2023-03-04T07:56:31.666Z,17.55
2023-03-04T07:59:33.666Z,17.61
2023-03-04T08:02:35.803Z,17.63
2023-03-04T08:05:40.039Z,17.63
2023-03-04T08:08:43.169Z,17.63
2023-03-04T08:11:45.446Z,17.66
2023-03-04T08:14:47.506Z,17.74
2023-03-04T08:17:49.538Z,17.70
2023-03-04T08:20:52.340Z,17.70
2023-03-04T08:23:55.123Z,17.72
2023-03-04T08:26:57.455Z,17.74
2023-03-04T08:29:59.867Z,17.75
2023-03-04T08:33:03.169Z,17.74
2023-03-04T08:36:05.707Z,17.75
2023-03-04T08:39:08.286Z,17.79
2023-03-04T08:42:10.350Z,17.87
2023-03-04T08:45:12.479Z,17.97
2023-03-04T08:48:14.937Z,17.94
2023-03-04T08:51:17.338Z,17.94
2023-03-04T08:54:19.405Z,18.04
2023-03-04T08:57:21.496Z,18.12
2023-03-04T09:00:23.773Z,18.09
2023-03-04T09:03:26.335Z,18.07
2023-03-04T09:06:28.409Z,18.13
2023-03-04T09:09:30.436Z,18.21
2023-03-04T09:12:32.562Z,18.27
2023-03-04T09:15:35.997Z,18.37
2023-03-04T09:18:39.358Z,18.41
2023-03-04T09:21:41.413Z,18.47
2023-03-04T09:24:43.444Z,18.57
2023-03-04T09:27:45.620Z,18.59
2023-03-04T09:30:48.571Z,18.66
2023-03-04T09:33:52.663Z,18.67
2023-03-04T09:36:54.832Z,18.73
2023-03-04T09:39:56.830Z,18.83
2023-03-04T09:43:05.205Z,18.84
2023-03-04T09:46:27.688Z,18.73
2023-03-04T09:49:31.257Z,18.74
2023-03-04T09:52:42.232Z,18.77
2023-03-04T09:55:47.867Z,18.88
2023-03-04T09:59:08.748Z,18.91
2023-03-04T10:02:29.019Z,18.93
2023-03-04T10:05:33.995Z,18.88
2023-03-04T10:08:45.609Z,18.98
2023-03-04T10:12:01.522Z,18.95
2023-03-04T10:15:35.156Z,18.92
2023-03-04T10:18:43.722Z,18.91
2023-03-04T10:21:48.200Z,18.95
2023-03-04T10:24:51.578Z,18.99
2023-03-04T10:28:18.599Z,19.02
2023-03-04T10:31:38.018Z,19.02
2023-03-04T10:34:40.186Z,19.02
2023-03-04T10:37:47.175Z,19.15
2023-03-04T10:40:49.755Z,19.20
2023-03-04T10:44:09.949Z,19.20
2023-03-04T10:47:14.175Z,19.22
2023-03-04T10:50:24.261Z,19.25
2023-03-04T10:53:33.447Z,19.32
2023-03-04T10:56:42.849Z,19.29
2023-03-04T10:59:53.723Z,19.30
2023-03-04T11:03:21.387Z,19.31
2023-03-04T11:06:23.561Z,19.35
2023-03-04T11:09:28.710Z,19.42
2023-03-04T11:12:34.660Z,19.44
2023-03-04T11:15:59.638Z,19.43
2023-03-04T11:19:13.222Z,19.41
2023-03-04T11:22:18.048Z,19.44
2023-03-04T11:25:38.187Z,19.54
2023-03-04T11:28:50.880Z,19.57
2023-03-04T11:32:03.721Z,19.59
2023-03-04T11:35:22.664Z,19.59
2023-03-04T11:38:35.200Z,19.61
2023-03-04T11:41:40.792Z,19.67
2023-03-04T11:44:42.916Z,19.68
2023-03-04T11:48:11.405Z,19.70
2023-03-04T11:51:35.125Z,19.66
2023-03-04T11:54:58.126Z,19.71
2023-03-04T11:58:20.466Z,19.80
2023-03-04T12:01:27.213Z,19.77
2023-03-04T12:04:35.148Z,19.80
2023-03-04T12:08:07.751Z,19.83
2023-03-04T12:11:40.230Z,19.95
2023-03-04T12:14:48.899Z,19.97
2023-03-04T12:17:53.948Z,19.99
2023-03-04T12:21:33.446Z,19.99
2023-03-04T12:25:00.135Z,19.98
2023-03-04T12:28:22.846Z,20.11
2023-03-04T12:31:45.474Z,20.13
2023-03-04T12:35:19.616Z,20.06
2023-03-04T12:38:35.166Z,19.97
2023-03-04T12:41:56.810Z,20.03
2023-03-04T12:45:25.337Z,20.17
2023-03-04T12:48:48.391Z,20.21
2023-03-04T12:52:05.313Z,20.18
2023-03-04T12:55:15.907Z,19.45
2023-03-04T12:58:30.633Z,18.55
2023-03-04T13:01:48.530Z,18.69
2023-03-04T13:05:18.848Z,19.51
2023-03-04T13:08:34.201Z,19.77
2023-03-04T13:12:04.576Z,19.95
2023-03-04T13:15:09.329Z,19.96
2023-03-04T13:18:31.566Z,20.01
2023-03-04T13:21:43.797Z,20.16
2023-03-04T13:24:50.586Z,20.20
2023-03-04T13:28:07.088Z,20.30
2023-03-04T13:31:13.644Z,20.32
2023-03-04T13:34:54.499Z,20.36
2023-03-04T13:38:00.335Z,20.34
2023-03-04T13:41:22.005Z,20.34
2023-03-04T13:44:54.861Z,20.35
2023-03-04T13:47:57.248Z,20.41
2023-03-04T13:50:59.557Z,20.42
2023-03-04T13:54:02.873Z,20.44
2023-03-04T13:57:21.359Z,20.44
2023-03-04T14:00:23.555Z,20.45
2023-03-04T14:03:28.549Z,20.43
2023-03-04T14:06:31.706Z,20.42
2023-03-04T14:09:35.175Z,20.44
2023-03-04T14:12:43.005Z,20.37
2023-03-04T14:15:57.919Z,20.36
2023-03-04T14:19:03.822Z,20.27
2023-03-04T14:22:38.469Z,20.25
2023-03-04T14:25:40.528Z,20.22
2023-03-04T14:28:48.064Z,20.15
2023-03-04T14:31:50.999Z,20.13
2023-03-04T14:34:58.855Z,20.11
2023-03-04T14:38:31.896Z,20.11
2023-03-04T14:41:36.398Z,20.17
2023-03-04T14:44:48.982Z,20.17
2023-03-04T14:47:54.400Z,20.16
2023-03-04T14:50:57.410Z,20.15
2023-03-04T14:53:59.864Z,20.16
2023-03-04T14:57:22.144Z,20.13
2023-03-04T15:00:29.037Z,20.12
2023-03-04T15:03:32.158Z,20.10
2023-03-04T15:06:52.686Z,20.06
2023-03-04T15:09:56.235Z,20.04
2023-03-04T15:13:01.522Z,20.04
2023-03-04T15:16:03.597Z,20.00
2023-03-04T15:19:23.913Z,19.96
2023-03-04T15:22:26.041Z,19.91
2023-03-04T15:25:28.835Z,19.88
2023-03-04T15:28:34.885Z,19.85
2023-03-04T15:31:36.880Z,19.82
2023-03-04T15:34:38.959Z,19.82
2023-03-04T15:37:41.924Z,19.77
2023-03-04T15:40:44.123Z,19.71
2023-03-04T15:43:46.167Z,19.68
2023-03-04T15:46:48.212Z,19.61
2023-03-04T15:49:50.235Z,19.54
2023-03-04T15:52:53.498Z,19.47
2023-03-04T15:55:55.738Z,19.41
2023-03-04T15:59:10.586Z,19.40
2023-03-04T16:02:23.744Z,19.36
2023-03-04T16:05:26.198Z,19.31
2023-03-04T16:08:28.649Z,19.29
2023-03-04T16:11:36.822Z,19.28
2023-03-04T16:14:39.262Z,19.33
2023-03-04T16:17:43.945Z,19.29
2023-03-04T16:20:48.691Z,19.31
2023-03-04T16:23:52.098Z,19.29
2023-03-04T16:26:54.174Z,19.26
2023-03-04T16:29:56.219Z,19.24
2023-03-04T16:32:58.215Z,19.22
2023-03-04T16:36:00.408Z,19.21
2023-03-04T16:39:07.799Z,19.14
2023-03-04T16:42:14.674Z,19.10
2023-03-04T16:45:25.807Z,19.08
2023-03-04T16:48:27.983Z,19.03
2023-03-04T16:51:30.707Z,19.01
2023-03-04T16:54:34.896Z,18.98
2023-03-04T16:57:36.945Z,18.97
2023-03-04T17:00:38.986Z,18.94
2023-03-04T17:03:41.020Z,18.91
2023-03-04T17:06:43.026Z,18.86
2023-03-04T17:09:45.121Z,18.78
2023-03-04T17:12:47.234Z,18.79
2023-03-04T17:15:49.432Z,18.78
2023-03-04T17:18:51.462Z,18.74
2023-03-04T17:21:55.602Z,18.74
2023-03-04T17:24:57.770Z,18.73
2023-03-04T17:27:59.824Z,18.71
2023-03-04T17:31:02.146Z,18.68
2023-03-04T17:34:04.257Z,18.68
2023-03-04T17:37:06.342Z,18.68
2023-03-04T17:40:14.033Z,18.66
2023-03-04T17:43:16.117Z,18.64
2023-03-04T17:46:21.651Z,18.62
2023-03-04T17:49:24.483Z,18.59
2023-03-04T17:52:26.572Z,18.58
2023-03-04T17:55:28.629Z,18.56
2023-03-04T17:58:32.825Z,18.54
2023-03-04T18:01:36.327Z,18.50
2023-03-04T18:04:38.360Z,18.50
2023-03-04T18:07:40.426Z,18.44
2023-03-04T18:10:42.642Z,18.42
2023-03-04T18:13:45.148Z,18.40
2023-03-04T18:16:47.315Z,18.39
2023-03-04T18:19:49.447Z,18.40
2023-03-04T18:22:51.649Z,18.36
2023-03-04T18:25:53.740Z,18.36
2023-03-04T18:28:56.822Z,18.33
2023-03-04T18:31:59.335Z,18.30
2023-03-04T18:35:01.620Z,18.29
2023-03-04T18:38:03.691Z,18.28
2023-03-04T18:41:08.008Z,18.28
2023-03-04T18:44:10.331Z,18.27
2023-03-04T18:47:12.722Z,18.25
2023-03-04T18:50:14.890Z,18.26
2023-03-04T18:53:16.922Z,18.24
2023-03-04T18:56:28.250Z,18.21
2023-03-04T18:59:44.472Z,18.18
2023-03-04T19:03:00.743Z,18.18
2023-03-04T19:06:03.446Z,18.15
2023-03-04T19:09:06.604Z,18.14
2023-03-04T19:12:08.993Z,18.14
2023-03-04T19:15:12.061Z,18.13
2023-03-04T19:18:14.085Z,18.12
2023-03-04T19:21:16.181Z,18.09
2023-03-04T19:24:18.383Z,18.11
2023-03-04T19:27:20.562Z,18.10
2023-03-04T19:30:22.662Z,18.07
2023-03-04T19:33:26.917Z,18.07
2023-03-04T19:36:30.093Z,18.05
2023-03-04T19:39:32.129Z,18.04
2023-03-04T19:42:34.218Z,18.04
2023-03-04T19:45:36.471Z,17.99
2023-03-04T19:48:39.646Z,18.00
2023-03-04T19:51:42.010Z,17.97
2023-03-04T19:54:44.159Z,17.98
2023-03-04T19:57:46.221Z,17.97
2023-03-04T20:00:50.028Z,17.95
2023-03-04T20:03:52.215Z,17.94
2023-03-04T20:06:54.282Z,17.92
2023-03-04T20:09:56.466Z,17.91
2023-03-04T20:12:59.149Z,17.91
2023-03-04T20:16:01.322Z,17.90
2023-03-04T20:19:03.481Z,17.88
2023-03-04T20:22:06.980Z,17.89
2023-03-04T20:25:09.257Z,17.87
2023-03-04T20:28:11.317Z,17.87
2023-03-04T20:31:24.415Z,17.85
2023-03-04T20:34:27.030Z,17.87
2023-03-04T20:37:29.199Z,17.84
2023-03-04T20:40:31.305Z,17.84
2023-03-04T20:43:33.368Z,17.82
2023-03-04T20:46:39.096Z,17.82
2023-03-04T20:49:41.444Z,17.81
2023-03-04T20:52:45.824Z,17.80
2023-03-04T20:55:47.822Z,17.80
2023-03-04T20:58:50.718Z,17.79
2023-03-04T21:01:53.205Z,17.78
2023-03-04T21:04:55.625Z,17.78
2023-03-04T21:07:59.121Z,17.76
2023-03-04T21:11:02.062Z,17.76
2023-03-04T21:14:04.153Z,17.75
2023-03-04T21:17:06.249Z,17.73
2023-03-04T21:20:10.605Z,17.74
2023-03-04T21:23:12.767Z,17.73
2023-03-04T21:26:14.932Z,17.73
2023-03-04T21:29:19.826Z,17.72
2023-03-04T21:32:26.815Z,17.72
2023-03-04T21:35:29.032Z,17.69
2023-03-04T21:38:31.205Z,17.69
2023-03-04T21:41:33.320Z,17.69
2023-03-04T21:44:48.509Z,17.68
2023-03-04T21:47:51.542Z,17.65
2023-03-04T21:50:54.179Z,17.65
2023-03-04T21:53:56.316Z,17.65
2023-03-04T21:56:58.457Z,17.64
2023-03-04T22:00:01.651Z,17.62
2023-03-04T22:03:03.719Z,17.61
2023-03-04T22:06:10.412Z,17.61
2023-03-04T22:09:12.807Z,17.63
2023-03-04T22:12:16.413Z,17.59
2023-03-04T22:15:19.598Z,17.59
2023-03-04T22:18:21.766Z,17.58
2023-03-04T22:21:23.970Z,17.55
2023-03-04T22:24:26.290Z,17.54
2023-03-04T22:27:28.395Z,17.52
2023-03-04T22:30:32.055Z,17.50
2023-03-04T22:33:37.086Z,17.49
2023-03-04T22:36:41.769Z,17.48
2023-03-04T22:39:43.865Z,17.47
2023-03-04T22:42:47.225Z,17.47
2023-03-04T22:45:49.463Z,17.47
2023-03-04T22:48:53.421Z,17.43
2023-03-04T22:51:55.505Z,17.44
2023-03-04T22:54:57.564Z,17.41
2023-03-04T22:58:00.071Z,17.41
2023-03-04T23:01:03.255Z,17.44
2023-03-04T23:04:05.461Z,17.40
2023-03-04T23:07:07.538Z,17.41
2023-03-04T23:10:15.759Z,17.39
2023-03-04T23:13:17.801Z,17.39
2023-03-04T23:16:20.916Z,17.38
2023-03-04T23:19:22.909Z,17.37
2023-03-04T23:22:25.161Z,17.36
2023-03-04T23:25:27.246Z,17.35
2023-03-04T23:28:29.317Z,17.33
2023-03-04T23:31:32.983Z,17.32
2023-03-04T23:34:36.521Z,17.31
2023-03-04T23:37:38.726Z,17.30
2023-03-04T23:40:40.859Z,17.30
2023-03-04T23:43:43.093Z,17.28
2023-03-04T23:46:45.164Z,17.28
2023-03-04T23:49:47.395Z,17.25
2023-03-04T23:52:49.685Z,17.22
2023-03-04T23:55:51.711Z,17.22
2023-03-04T23:58:54.705Z,17.22
